Time;durP1;ratioP1;P1;durP2;ratioP2;P2;SDS_P1;SDS_P2;PMS_P1;PMS_P2;Temp;Humidity;BMP_temperature;BMP_pressure;BME280_temperature;BME280_humidity;BME280_pressure;Samples;Min_cycle;Max_cycle;Signal;HPM_P1;HPM_P2
2021/07/19 00:00:12;;;;;;;;;;;;;;;17.78;100.00;96159.00;1052627;28;20277;-65
2021/07/19 00:00:42;;;;;;;;;;;;;;;17.78;100.00;96169.81;1048484;28;19912;-65
2021/07/19 00:01:13;;;;;;;;;;;;;;;17.79;100.00;96165.97;1048550;28;19944;-65
2021/07/19 00:01:43;;;;;;;;;;;;;;;17.77;100.00;96165.50;1048514;28;19912;-65
2021/07/19 00:02:13;;;;;;;;;;;;;;;17.77;100.00;96160.09;1048462;28;19919;-66
2021/07/19 00:02:44;;;;;;;;;;;;;;;17.74;100.00;96164.22;1053055;28;20438;-66
2021/07/19 00:03:14;;;;;;;;;;;;;;;17.74;100.00;96164.22;1053037;28;19919;-66
2021/07/19 00:03:44;;;;;;;;;;;;;;;17.73;100.00;96170.72;1052973;28;19912;-66
2021/07/19 00:04:15;;;;;;;;;;;;;;;17.73;100.00;96168.03;1052338;28;19916;-66
2021/07/19 00:04:45;;;;;;;;;;;;;;;17.69;100.00;96158.91;1052819;28;19993;-66
2021/07/19 00:05:15;;;;;;;;;;;;;;;17.67;100.00;96167.34;1052986;28;19924;-66
2021/07/19 00:05:46;;;;;;;;;;;;;;;17.64;100.00;96164.44;1045618;28;19913;-66
2021/07/19 00:06:16;;;;;;;;;;;;;;;17.61;100.00;96162.38;1048280;28;19916;-65
2021/07/19 00:06:46;;;;;;;;;;;;;;;17.59;100.00;96165.38;1044314;28;19909;-65
2021/07/19 00:07:17;;;;;;;;;;;;;;;17.56;100.00;96166.03;1044320;28;19967;-64
2021/07/19 00:07:47;;;;;;;;;;;;;;;17.59;100.00;96165.38;1048480;28;19916;-65
2021/07/19 00:08:17;;;;;;;;;;;;;;;17.60;100.00;96166.16;1048694;28;20014;-66
2021/07/19 00:08:47;;;;;;;;;;;;;;;17.59;100.00;96168.09;1052887;28;20281;-66
2021/07/19 00:09:18;;;;;;;;;;;;;;;17.57;100.00;96166.81;1052928;28;19975;-64
2021/07/19 00:09:48;;;;;;;;;;;;;;;17.52;100.00;96164.25;1052979;28;19912;-64
2021/07/19 00:10:19;;;;;;;;;;;;;;;17.49;100.00;96165.66;1052886;28;19934;-66
2021/07/19 00:10:49;;;;;;;;;;;;;;;17.45;100.00;96167.38;1053083;28;19996;-64
2021/07/19 00:11:20;;;;;;;;;;;;;;;17.42;100.00;96163.38;1052943;28;19909;-64
2021/07/19 00:11:50;;;;;;;;;;;;;;;17.39;100.00;96163.19;1047753;28;19908;-64
2021/07/19 00:12:20;;;;;;;;;;;;;;;17.38;100.00;96164.31;1048358;28;19919;-64
2021/07/19 00:12:50;;;;;;;;;;;;;;;17.38;100.00;96167.81;1048432;28;19993;-65
2021/07/19 00:13:21;;;;;;;;;;;;;;;17.39;100.00;96166.69;1048475;28;20254;-66
2021/07/19 00:13:51;;;;;;;;;;;;;;;17.32;100.00;96165.56;1048473;28;20384;-65
2021/07/19 00:14:21;;;;;;;;;;;;;;;17.34;100.00;96174.94;1044405;28;19915;-66
2021/07/19 00:14:52;;;;;;;;;;;;;;;17.32;100.00;96163.66;1044341;28;19920;-66
2021/07/19 00:15:23;;;;;;;;;;;;;;;17.32;100.00;96174.44;1044309;28;19916;-66
2021/07/19 00:15:53;;;;;;;;;;;;;;;17.30;100.00;96168.56;1048650;28;20359;-66
2021/07/19 00:16:23;;;;;;;;;;;;;;;17.29;100.00;96166.16;1048430;28;19909;-66
2021/07/19 00:16:54;;;;;;;;;;;;;;;17.28;100.00;96170.75;1048439;28;19962;-66
2021/07/19 00:17:24;;;;;;;;;;;;;;;17.28;100.00;96167.28;1044303;28;19966;-65
2021/07/19 00:17:56;;;;;;;;;;;;;;;17.26;100.00;96164.09;1044423;28;19913;-65
2021/07/19 00:18:26;;;;;;;;;;;;;;;17.28;100.00;96170.75;1045857;28;20309;-65
2021/07/19 00:18:56;;;;;;;;;;;;;;;17.25;100.00;96170.56;1048559;28;19912;-65
2021/07/19 00:19:27;;;;;;;;;;;;;;;17.25;100.00;96159.78;1053032;28;19904;-66
2021/07/19 00:19:57;;;;;;;;;;;;;;;17.28;100.00;96175.38;1052896;28;20368;-66
2021/07/19 00:20:27;;;;;;;;;;;;;;;17.31;100.00;96166.66;1052980;28;19962;-66
2021/07/19 00:20:58;;;;;;;;;;;;;;;17.30;100.00;96168.56;1053025;28;19930;-66
2021/07/19 00:21:28;;;;;;;;;;;;;;;17.30;100.00;96167.75;1053256;28;20280;-65
2021/07/19 00:21:58;;;;;;;;;;;;;;;17.33;100.00;96170.63;1053049;28;19915;-65
2021/07/19 00:22:29;;;;;;;;;;;;;;;17.32;100.00;96165.56;1049408;28;19909;-65
2021/07/19 00:22:59;;;;;;;;;;;;;;;17.29;100.00;96160.75;1048990;28;20006;-65
2021/07/19 00:23:29;;;;;;;;;;;;;;;17.26;100.00;96166.78;1048972;28;20354;-66
2021/07/19 00:23:59;;;;;;;;;;;;;;;17.23;100.00;96164.69;1049077;28;19909;-65
2021/07/19 00:24:30;;;;;;;;;;;;;;;17.19;100.00;96169.91;1049037;28;19904;-65
2021/07/19 00:25:00;;;;;;;;;;;;;;;17.23;100.00;96168.19;1049004;28;19908;-66
2021/07/19 00:25:30;;;;;;;;;;;;;;;17.21;100.00;96162.31;1049119;28;19908;-65
2021/07/19 00:26:01;;;;;;;;;;;;;;;17.13;100.00;96158.44;1049095;28;19944;-65
2021/07/19 00:26:31;;;;;;;;;;;;;;;17.14;100.00;96161.94;1048968;28;19917;-65
2021/07/19 00:27:01;;;;;;;;;;;;;;;17.13;100.00;96157.63;1049013;28;19934;-65
2021/07/19 00:27:31;;;;;;;;;;;;;;;17.15;100.00;96156.25;1049085;28;19920;-66
2021/07/19 00:28:03;;;;;;;;;;;;;;;17.12;100.00;96162.25;1049051;28;20258;-66
2021/07/19 00:28:33;;;;;;;;;;;;;;;17.13;100.00;96163.84;1049066;28;20384;-65
2021/07/19 00:29:03;;;;;;;;;;;;;;;17.11;100.00;96159.84;1048979;28;19920;-66
2021/07/19 00:29:34;;;;;;;;;;;;;;;17.06;100.00;96159.97;1049044;28;19961;-65
2021/07/19 00:30:05;;;;;;;;;;;;;;;17.03;100.00;96155.19;1049069;28;19978;-66
2021/07/19 00:30:37;;;;;;;;;;;;;;;17.02;100.00;96159.78;1048993;28;19935;-66
2021/07/19 00:31:07;;;;;;;;;;;;;;;17.04;100.00;96164.88;1049032;28;19912;-65
2021/07/19 00:31:38;;;;;;;;;;;;;;;17.06;100.00;96159.97;1048869;28;20246;-65
2021/07/19 00:32:08;;;;;;;;;;;;;;;17.06;100.00;96157.28;1048930;28;20357;-65
2021/07/19 00:32:38;;;;;;;;;;;;;;;17.06;100.00;96159.97;1050252;28;19998;-65
2021/07/19 00:33:10;;;;;;;;;;;;;;;17.04;100.00;96165.66;1053112;28;19931;-66
2021/07/19 00:33:41;;;;;;;;;;;;;;;17.03;100.00;96161.38;1053093;28;19912;-66
2021/07/19 00:34:11;;;;;;;;;;;;;;;17.01;100.00;96155.50;1053133;28;19934;-65
2021/07/19 00:34:41;;;;;;;;;;;;;;;17.04;100.00;96154.88;1053195;28;19905;-65
2021/07/19 00:35:11;;;;;;;;;;;;;;;17.03;100.00;96155.19;1056920;28;20337;-66
2021/07/19 00:35:42;;;;;;;;;;;;;;;17.02;100.00;96162.50;1057135;28;19904;-65
2021/07/19 00:36:12;;;;;;;;;;;;;;;17.03;100.00;96155.19;1057073;28;19940;-65
2021/07/19 00:36:42;;;;;;;;;;;;;;;17.02;100.00;96162.50;1057096;28;19953;-65
2021/07/19 00:37:12;;;;;;;;;;;;;;;17.00;100.00;96153.91;1053159;28;19941;-65
2021/07/19 00:37:43;;;;;;;;;;;;;;;17.01;100.00;96160.09;1053182;28;20352;-65
2021/07/19 00:38:13;;;;;;;;;;;;;;;16.99;100.00;96155.00;1053196;28;19905;-65
2021/07/19 00:38:43;;;;;;;;;;;;;;;16.99;100.00;96157.69;1053185;28;19944;-65
2021/07/19 00:39:14;;;;;;;;;;;;;;;16.97;100.00;96159.91;1053220;28;20310;-65
2021/07/19 00:39:44;;;;;;;;;;;;;;;16.97;100.00;96159.13;1053157;28;19940;-65
2021/07/19 00:40:16;;;;;;;;;;;;;;;16.96;100.00;96152.91;1053159;28;19908;-66
2021/07/19 00:40:46;;;;;;;;;;;;;;;16.94;100.00;96148.91;1053248;28;20053;-63
2021/07/19 00:41:16;;;;;;;;;;;;;;;16.95;100.00;96156.72;1053146;28;19904;-65
2021/07/19 00:41:47;;;;;;;;;;;;;;;16.94;100.00;96155.13;1053101;28;20256;-65
2021/07/19 00:42:17;;;;;;;;;;;;;;;16.95;100.00;96147.84;1053203;28;20079;-65
2021/07/19 00:42:47;;;;;;;;;;;;;;;16.97;100.00;96154.50;1052369;28;19915;-65
2021/07/19 00:43:17;;;;;;;;;;;;;;;16.96;100.00;96154.81;1053155;28;20344;-65
2021/07/19 00:43:48;;;;;;;;;;;;;;;16.94;100.00;96149.75;1053148;28;19904;-65
2021/07/19 00:44:20;;;;;;;;;;;;;;;16.95;100.00;96150.53;1053138;28;19901;-65
2021/07/19 00:44:50;;;;;;;;;;;;;;;16.96;100.00;96152.13;1053215;28;19950;-65
2021/07/19 00:45:22;;;;;;;;;;;;;;;16.92;100.00;96149.22;1053130;28;19912;-66
2021/07/19 00:45:53;;;;;;;;;;;;;;;16.89;100.00;96145.25;1053165;28;19909;-65
2021/07/19 00:46:24;;;;;;;;;;;;;;;16.90;100.00;96148.75;1052769;28;20373;-65
2021/07/19 00:46:54;;;;;;;;;;;;;;;16.88;100.00;96145.53;1053215;28;19952;-65
2021/07/19 00:47:24;;;;;;;;;;;;;;;16.84;100.00;96150.78;1053171;28;19908;-65
2021/07/19 00:47:55;;;;;;;;;;;;;;;16.75;100.00;96149.91;1048649;28;19919;-65
2021/07/19 00:48:25;;;;;;;;;;;;;;;16.75;100.00;96152.59;1048700;28;19968;-65
2021/07/19 00:48:56;;;;;;;;;;;;;;;16.76;100.00;96145.31;1052859;28;19919;-65
2021/07/19 00:49:28;;;;;;;;;;;;;;;16.76;100.00;96148.00;1052963;28;20010;-65
2021/07/19 00:49:58;;;;;;;;;;;;;;;16.72;100.00;96147.00;1052778;28;19908;-65
2021/07/19 00:50:29;;;;;;;;;;;;;;;16.71;100.00;96143.50;1052692;28;19912;-65
2021/07/19 00:50:59;;;;;;;;;;;;;;;16.69;100.00;96153.00;1048751;28;19968;-65
2021/07/19 00:51:29;;;;;;;;;;;;;;;16.66;100.00;96148.19;1048750;28;19912;-66
2021/07/19 00:52:00;;;;;;;;;;;;;;;16.59;100.00;96146.72;1053143;28;19997;-65
2021/07/19 00:52:30;;;;;;;;;;;;;;;16.60;100.00;96151.00;1053213;28;20292;-65
2021/07/19 00:53:01;;;;;;;;;;;;;;;16.60;100.00;96148.31;1053269;28;19908;-65
2021/07/19 00:53:32;;;;;;;;;;;;;;;16.56;100.00;96155.41;1049681;28;19912;-65
2021/07/19 00:54:02;;;;;;;;;;;;;;;16.57;100.00;96154.31;1049059;28;19966;-66
2021/07/19 00:54:33;;;;;;;;;;;;;;;16.57;100.00;96151.59;1048976;28;20417;-65
2021/07/19 00:55:03;;;;;;;;;;;;;;;16.57;100.00;96157.00;1048774;28;19920;-66
2021/07/19 00:55:40;;;;;;;;;;;;;;;16.59;100.00;96154.03;1048696;28;19912;-65
2021/07/19 00:56:11;;;;;;;;;;;;;;;16.56;100.00;96150.03;1048758;28;19912;-65
2021/07/19 00:56:41;;;;;;;;;;;;;;;16.53;100.00;96160.63;1048927;28;19938;-65
2021/07/19 00:57:11;;;;;;;;;;;;;;;16.52;100.00;96157.13;1049021;28;19908;-66
2021/07/19 00:57:46;;;;;;;;;;;;;;;16.54;100.00;96141.44;1048795;28;19962;-65
2021/07/19 00:58:17;;;;;;;;;;;;;;;16.56;100.00;96154.63;1052852;28;19908;-65
2021/07/19 00:58:50;;;;;;;;;;;;;;;16.57;100.00;96154.31;1053005;28;19920;-65
2021/07/19 00:59:23;;;;;;;;;;;;;;;16.59;100.00;96143.22;1054340;28;19908;-66
2021/07/19 00:59:54;;;;;;;;;;;;;;;16.59;100.00;96157.53;1053697;28;20347;-66
2021/07/19 01:00:24;;;;;;;;;;;;;;;16.60;100.00;96151.00;1050425;28;19908;-65
2021/07/19 01:00:54;;;;;;;;;;;;;;;16.62;100.00;96148.00;1050930;28;19905;-65
2021/07/19 01:01:25;;;;;;;;;;;;;;;16.61;100.00;96152.59;1050485;28;19908;-66
2021/07/19 01:01:55;;;;;;;;;;;;;;;16.60;100.00;96145.63;1054577;28;19950;-65
2021/07/19 01:02:25;;;;;;;;;;;;;;;16.62;100.00;96150.69;1054515;28;20385;-66
2021/07/19 01:02:55;;;;;;;;;;;;;;;16.60;100.00;96150.22;1050110;28;20011;-66
2021/07/19 01:03:26;;;;;;;;;;;;;;;16.60;100.00;96150.22;1050350;28;20297;-66
2021/07/19 01:03:56;;;;;;;;;;;;;;;16.63;100.00;96146.91;1048411;28;20376;-66
2021/07/19 01:04:26;;;;;;;;;;;;;;;16.64;100.00;96151.22;1050168;28;20000;-66
2021/07/19 01:04:57;;;;;;;;;;;;;;;16.66;100.00;96157.09;1055016;28;19916;-65
2021/07/19 01:05:27;;;;;;;;;;;;;;;16.69;100.00;96153.00;1054418;28;19969;-66
2021/07/19 01:05:58;;;;;;;;;;;;;;;16.70;100.00;96152.69;1054728;28;19942;-66
2021/07/19 01:06:28;;;;;;;;;;;;;;;16.70;100.00;96151.88;1058587;28;19904;-66
2021/07/19 01:07:00;;;;;;;;;;;;;;;16.75;100.00;96149.09;1058919;28;19912;-66
2021/07/19 01:07:31;;;;;;;;;;;;;;;16.75;100.00;96152.59;1058680;28;19954;-66
2021/07/19 01:08:02;;;;;;;;;;;;;;;16.77;100.00;96149.59;1054374;28;20349;-66
2021/07/19 01:08:33;;;;;;;;;;;;;;;16.79;100.00;96147.41;1054573;28;20368;-66
2021/07/19 01:09:04;;;;;;;;;;;;;;;16.81;100.00;96145.97;1058391;28;19911;-66
2021/07/19 01:09:34;;;;;;;;;;;;;;;16.81;100.00;96151.38;1057885;28;20443;-66
2021/07/19 01:10:06;;;;;;;;;;;;;;;16.83;100.00;96153.75;1049544;28;19912;-66
2021/07/19 01:10:36;;;;;;;;;;;;;;;16.83;100.00;96153.75;1045619;28;19924;-65
2021/07/19 01:11:07;;;;;;;;;;;;;;;16.82;100.00;96146.78;1042032;28;19913;-66
2021/07/19 01:11:37;;;;;;;;;;;;;;;16.83;100.00;96153.75;1038254;28;20250;-66
2021/07/19 01:12:07;;;;;;;;;;;;;;;16.83;100.00;96151.84;1046180;28;19923;-66
2021/07/19 01:12:38;;;;;;;;;;;;;;;16.82;100.00;96155.66;1046172;28;19983;-66
2021/07/19 01:13:08;;;;;;;;;;;;;;;16.84;100.00;96156.16;1049126;28;19997;-66
2021/07/19 01:13:38;;;;;;;;;;;;;;;16.84;100.00;96150.78;1051228;28;19960;-66
2021/07/19 01:14:09;;;;;;;;;;;;;;;16.85;100.00;96151.56;1047589;28;19988;-66
2021/07/19 01:14:39;;;;;;;;;;;;;;;16.86;100.00;96156.66;1045409;28;19952;-66
2021/07/19 01:15:09;;;;;;;;;;;;;;;16.86;100.00;96159.34;1041193;28;19917;-65
2021/07/19 01:15:40;;;;;;;;;;;;;;;16.88;100.00;96161.75;1044654;28;20004;-66
2021/07/19 01:16:10;;;;;;;;;;;;;;;16.88;100.00;96159.03;1049098;28;20302;-66
2021/07/19 01:16:40;;;;;;;;;;;;;;;16.87;100.00;96154.75;1048863;28;20353;-67
2021/07/19 01:17:11;;;;;;;;;;;;;;;16.84;100.00;96148.06;1049632;28;19912;-66
2021/07/19 01:17:41;;;;;;;;;;;;;;;16.85;100.00;96155.06;1049087;28;19916;-66
2021/07/19 01:18:12;;;;;;;;;;;;;;;16.85;100.00;96156.97;1049081;28;19962;-65
2021/07/19 01:18:42;;;;;;;;;;;;;;;16.88;100.00;96156.34;1049015;28;19969;-65
2021/07/19 01:19:12;;;;;;;;;;;;;;;16.89;100.00;96157.97;1048796;28;19958;-66
2021/07/19 01:19:44;;;;;;;;;;;;;;;16.87;100.00;96158.25;1048993;28;19917;-68
2021/07/19 01:20:14;;;;;;;;;;;;;;;16.92;100.00;96156.53;1048944;28;20277;-65
2021/07/19 01:21:01;;;;;;;;;;;;;;;16.91;100.00;96154.94;1044958;28;19924;-66
2021/07/19 01:22:00;;;;;;;;;;;;;;;16.87;100.00;96160.94;1048949;28;19913;-65
2021/07/19 01:22:33;;;;;;;;;;;;;;;16.82;100.00;96152.97;1040378;28;19909;-66
2021/07/19 01:23:10;;;;;;;;;;;;;;;16.85;100.00;96157.75;1039933;28;19913;-66
2021/07/19 01:24:06;;;;;;;;;;;;;;;16.86;100.00;96159.34;1036339;28;19909;-65
2021/07/19 01:24:45;;;;;;;;;;;;;;;16.88;100.00;96159.03;1044666;28;19917;-66
2021/07/19 01:25:34;;;;;;;;;;;;;;;16.89;100.00;96152.56;1050975;28;20265;-66
2021/07/19 01:26:08;;;;;;;;;;;;;;;16.89;100.00;96160.66;1050092;28;20405;-66
2021/07/19 01:27:07;;;;;;;;;;;;;;;16.87;100.00;96162.84;1052786;28;19923;-65
2021/07/19 01:27:51;;;;;;;;;;;;;;;16.90;100.00;96159.56;1040257;28;19918;-65
2021/07/19 01:28:37;;;;;;;;;;;;;;;16.89;100.00;96155.25;1057428;28;19911;-65
2021/07/19 01:29:07;;;;;;;;;;;;;;;16.87;100.00;96162.84;1057511;28;19977;-65
2021/07/19 01:29:38;;;;;;;;;;;;;;;16.90;100.00;96162.25;1053001;28;20368;-66
2021/07/19 01:30:08;;;;;;;;;;;;;;;16.89;100.00;96158.75;1046619;28;19975;-66
2021/07/19 01:30:38;;;;;;;;;;;;;;;16.91;100.00;96158.44;1044626;28;19940;-65
2021/07/19 01:31:28;;;;;;;;;;;;;;;16.89;100.00;96158.75;1040738;28;19917;-66
2021/07/19 01:31:58;;;;;;;;;;;;;;;16.85;100.00;96162.38;1050185;28;19908;-65
2021/07/19 01:32:29;;;;;;;;;;;;;;;16.83;100.00;96157.25;1049584;28;19917;-65
2021/07/19 01:33:00;;;;;;;;;;;;;;;16.83;100.00;96157.25;1047830;28;19956;-65
2021/07/19 01:33:30;;;;;;;;;;;;;;;16.82;100.00;96152.16;1048831;28;19912;-66
2021/07/19 01:34:07;;;;;;;;;;;;;;;16.84;100.00;96158.09;1040414;28;19964;-66
2021/07/19 01:34:38;;;;;;;;;;;;;;;16.82;100.00;96154.88;1044272;28;20489;-65
2021/07/19 01:35:08;;;;;;;;;;;;;;;16.78;100.00;96151.97;1048571;28;19919;-66
2021/07/19 01:35:39;;;;;;;;;;;;;;;16.78;100.00;96145.78;1048512;28;19908;-66
2021/07/19 01:36:10;;;;;;;;;;;;;;;16.75;100.00;96155.31;1048836;28;19920;-65
2021/07/19 01:36:43;;;;;;;;;;;;;;;16.74;100.00;96150.22;1048889;28;19912;-66
2021/07/19 01:37:13;;;;;;;;;;;;;;;16.71;100.00;96146.22;1056889;28;19908;-65
2021/07/19 01:37:44;;;;;;;;;;;;;;;16.69;100.00;96153.00;1052754;28;19912;-66
2021/07/19 01:38:15;;;;;;;;;;;;;;;16.64;100.00;96152.00;1052831;28;19912;-65
2021/07/19 01:38:45;;;;;;;;;;;;;;;16.63;100.00;96153.13;1048426;28;19919;-63
2021/07/19 01:39:15;;;;;;;;;;;;;;;16.62;100.00;96150.69;1044685;28;19913;-65
2021/07/19 01:39:46;;;;;;;;;;;;;;;16.60;100.00;96147.53;1052749;28;19916;-65
2021/07/19 01:40:16;;;;;;;;;;;;;;;16.59;100.00;96152.13;1052841;28;20366;-65
2021/07/19 01:40:48;;;;;;;;;;;;;;;16.56;100.00;96149.22;1052859;28;20365;-66
2021/07/19 01:41:19;;;;;;;;;;;;;;;16.51;100.00;96152.84;1056513;28;20295;-65
2021/07/19 01:41:50;;;;;;;;;;;;;;;16.48;100.00;96142.66;1056793;28;19912;-66
2021/07/19 01:42:20;;;;;;;;;;;;;;;16.49;100.00;96148.84;1052812;28;20369;-65
2021/07/19 01:42:50;;;;;;;;;;;;;;;16.46;100.00;96141.34;1052747;28;19912;-65
2021/07/19 01:43:21;;;;;;;;;;;;;;;16.41;100.00;96147.66;1048468;28;19909;-65
2021/07/19 01:43:51;;;;;;;;;;;;;;;16.40;100.00;96148.75;1045286;28;19912;-65
2021/07/19 01:44:22;;;;;;;;;;;;;;;16.35;100.00;96144.28;1053496;28;20268;-65
2021/07/19 01:44:52;;;;;;;;;;;;;;;16.22;100.00;96142.38;1052775;28;20060;-66
2021/07/19 01:45:22;;;;;;;;;;;;;;;16.20;100.00;96143.81;1053496;28;19950;-65
2021/07/19 01:45:53;;;;;;;;;;;;;;;16.19;100.00;96147.59;1053452;28;20360;-65
2021/07/19 01:46:23;;;;;;;;;;;;;;;16.20;100.00;96147.28;1053431;28;19912;-65
2021/07/19 01:46:54;;;;;;;;;;;;;;;16.20;100.00;96141.09;1053491;28;19947;-65
2021/07/19 01:47:24;;;;;;;;;;;;;;;16.22;100.00;96141.59;1053580;28;20351;-65
2021/07/19 01:47:55;;;;;;;;;;;;;;;16.22;100.00;96144.28;1053308;28;19908;-65
2021/07/19 01:48:25;;;;;;;;;;;;;;;16.19;100.00;96148.41;1053523;28;19946;-65
2021/07/19 01:48:55;;;;;;;;;;;;;;;16.20;100.00;96141.09;1053458;28;19994;-65
2021/07/19 01:49:26;;;;;;;;;;;;;;;16.21;100.00;96143.50;1053462;28;19912;-65
2021/07/19 01:49:56;;;;;;;;;;;;;;;16.22;100.00;96146.97;1053440;28;20456;-66
2021/07/19 01:50:28;;;;;;;;;;;;;;;16.18;100.00;96136.03;1040919;28;19913;-65
2021/07/19 01:50:59;;;;;;;;;;;;;;;16.19;100.00;96150.31;1041063;28;20461;-65
2021/07/19 01:51:29;;;;;;;;;;;;;;;16.17;100.00;96144.41;1037348;28;19913;-66
2021/07/19 01:52:00;;;;;;;;;;;;;;;16.20;100.00;96133.03;1037542;28;19913;-65
2021/07/19 01:52:30;;;;;;;;;;;;;;;16.20;100.00;96141.91;1040742;28;19973;-65
2021/07/19 01:53:00;;;;;;;;;;;;;;;16.25;100.00;96144.50;1032821;28;19981;-65
2021/07/19 01:53:30;;;;;;;;;;;;;;;16.24;100.00;96142.91;1032960;28;19944;-65
2021/07/19 01:54:01;;;;;;;;;;;;;;;16.24;100.00;96145.59;1037030;28;19913;-65
2021/07/19 01:54:31;;;;;;;;;;;;;;;16.22;100.00;96141.59;1041049;28;19905;-65
2021/07/19 01:55:02;;;;;;;;;;;;;;;16.21;100.00;96134.59;1045172;28;20007;-65
2021/07/19 01:55:33;;;;;;;;;;;;;;;16.19;100.00;96139.53;1045142;28;19909;-65
2021/07/19 01:56:03;;;;;;;;;;;;;;;16.18;100.00;96146.81;1045194;28;19913;-65
2021/07/19 01:56:33;;;;;;;;;;;;;;;16.17;100.00;96142.50;1045164;28;19909;-65
2021/07/19 01:57:04;;;;;;;;;;;;;;;16.15;100.00;96149.31;1045140;28;20306;-65
2021/07/19 01:57:34;;;;;;;;;;;;;;;16.12;100.00;96150.69;1045184;28;20306;-65
2021/07/19 01:58:04;;;;;;;;;;;;;;;16.14;100.00;96150.41;1045061;28;19917;-65
2021/07/19 01:58:34;;;;;;;;;;;;;;;16.11;100.00;96149.88;1041139;28;19967;-65
2021/07/19 01:59:05;;;;;;;;;;;;;;;16.08;100.00;96149.72;1045037;28;19917;-65
2021/07/19 01:59:35;;;;;;;;;;;;;;;16.05;100.00;96151.09;1047899;28;19963;-65
2021/07/19 02:00:06;;;;;;;;;;;;;;;16.01;100.00;96152.78;1053444;28;20403;-65
2021/07/19 02:00:36;;;;;;;;;;;;;;;16.00;100.00;96151.19;1053527;28;19908;-65
2021/07/19 02:01:06;;;;;;;;;;;;;;;15.98;100.00;96155.31;1053500;28;19912;-65
2021/07/19 02:01:37;;;;;;;;;;;;;;;15.94;100.00;96154.31;1053308;28;20380;-65
2021/07/19 02:02:07;;;;;;;;;;;;;;;15.85;100.00;96156.91;1049287;28;19916;-65
2021/07/19 02:02:37;;;;;;;;;;;;;;;15.84;100.00;96149.91;1049313;28;19923;-65
2021/07/19 02:03:08;;;;;;;;;;;;;;;15.79;100.00;96156.19;1044955;28;19939;-65
2021/07/19 02:03:38;;;;;;;;;;;;;;;15.79;100.00;96156.19;1045158;28;19909;-65
2021/07/19 02:04:09;;;;;;;;;;;;;;;15.80;100.00;96155.09;1045135;28;19916;-65
2021/07/19 02:04:39;;;;;;;;;;;;;;;15.85;100.00;96148.81;1049199;28;20361;-65
2021/07/19 02:05:10;;;;;;;;;;;;;;;15.86;100.00;96148.50;1049219;28;19920;-65
2021/07/19 02:05:40;;;;;;;;;;;;;;;15.87;100.00;96152.03;1053350;28;19908;-66
2021/07/19 02:06:10;;;;;;;;;;;;;;;15.85;100.00;96154.19;1057663;28;20346;-65
2021/07/19 02:06:42;;;;;;;;;;;;;;;15.83;100.00;96154.50;1053325;28;20443;-65
2021/07/19 02:07:12;;;;;;;;;;;;;;;15.82;100.00;96154.81;1049150;28;19917;-65
2021/07/19 02:07:42;;;;;;;;;;;;;;;15.84;100.00;96161.50;1049205;28;20361;-65
2021/07/19 02:08:14;;;;;;;;;;;;;;;15.86;100.00;96155.78;1049334;28;20033;-65
2021/07/19 02:08:45;;;;;;;;;;;;;;;15.85;100.00;96156.91;1049586;28;20002;-65
2021/07/19 02:09:16;;;;;;;;;;;;;;;15.86;100.00;96159.28;1049128;28;19913;-65
2021/07/19 02:09:47;;;;;;;;;;;;;;;15.87;100.00;96157.41;1042845;28;19941;-65
2021/07/19 02:10:17;;;;;;;;;;;;;;;15.87;100.00;96165.50;1037054;28;19929;-65
2021/07/19 02:10:48;;;;;;;;;;;;;;;15.88;100.00;96160.91;1045259;28;20404;-66
2021/07/19 02:11:21;;;;;;;;;;;;;;;15.86;100.00;96158.50;1049352;28;19992;-65
2021/07/19 02:11:51;;;;;;;;;;;;;;;15.85;100.00;96167.69;1049215;28;19912;-65
2021/07/19 02:12:22;;;;;;;;;;;;;;;15.86;100.00;96158.50;1048800;28;19916;-65
2021/07/19 02:12:53;;;;;;;;;;;;;;;15.86;100.00;96163.88;1040921;28;19913;-66
2021/07/19 02:13:23;;;;;;;;;;;;;;;15.86;100.00;96155.78;1041049;28;19913;-65
2021/07/19 02:13:54;;;;;;;;;;;;;;;15.83;100.00;96159.91;1045091;28;19912;-65
2021/07/19 02:14:24;;;;;;;;;;;;;;;15.85;100.00;96167.69;1045168;28;19966;-66
2021/07/19 02:14:54;;;;;;;;;;;;;;;15.86;100.00;96159.28;1049079;28;19915;-65
2021/07/19 02:15:25;;;;;;;;;;;;;;;15.86;100.00;96161.19;1045363;28;20374;-65
2021/07/19 02:15:55;;;;;;;;;;;;;;;15.86;100.00;96155.78;1054301;28;19916;-65
2021/07/19 02:16:27;;;;;;;;;;;;;;;15.85;100.00;96156.91;1053435;28;19947;-65
2021/07/19 02:16:58;;;;;;;;;;;;;;;15.83;100.00;96159.09;1053341;28;19912;-65
2021/07/19 02:17:28;;;;;;;;;;;;;;;15.84;100.00;96155.31;1052665;28;19912;-65
2021/07/19 02:18:00;;;;;;;;;;;;;;;15.83;100.00;96159.09;1053397;28;20010;-65
2021/07/19 02:18:30;;;;;;;;;;;;;;;15.83;100.00;96151.81;1053387;28;19911;-65
2021/07/19 02:19:01;;;;;;;;;;;;;;;15.82;100.00;96152.13;1053423;28;19912;-66
2021/07/19 02:19:32;;;;;;;;;;;;;;;15.82;100.00;96147.53;1053004;28;19945;-65
2021/07/19 02:20:05;;;;;;;;;;;;;;;15.84;100.00;96155.31;1049288;28;19962;-65
2021/07/19 02:20:35;;;;;;;;;;;;;;;15.86;100.00;96156.59;1049153;28;20007;-65
2021/07/19 02:21:05;;;;;;;;;;;;;;;15.87;100.00;96152.03;1048705;28;19912;-65
2021/07/19 02:21:35;;;;;;;;;;;;;;;15.87;100.00;96149.31;1053381;28;19908;-65
2021/07/19 02:22:06;;;;;;;;;;;;;;;15.87;100.00;96143.94;1053300;28;19942;-65
2021/07/19 02:22:40;;;;;;;;;;;;;;;15.85;100.00;96146.91;1049244;28;19912;-65
2021/07/19 02:23:10;;;;;;;;;;;;;;;15.84;100.00;96150.72;1048681;28;19912;-65
2021/07/19 02:23:40;;;;;;;;;;;;;;;15.84;100.00;96150.72;1045008;28;19963;-65
2021/07/19 02:24:10;;;;;;;;;;;;;;;15.86;100.00;96158.50;1045076;28;19939;-65
2021/07/19 02:24:41;;;;;;;;;;;;;;;15.88;100.00;96150.13;1045000;28;19916;-66
2021/07/19 02:25:11;;;;;;;;;;;;;;;15.86;100.00;96155.78;1049167;28;20395;-66
2021/07/19 02:25:41;;;;;;;;;;;;;;;15.84;100.00;96152.59;1049049;28;19920;-65
2021/07/19 02:26:12;;;;;;;;;;;;;;;15.85;100.00;96159.59;1048919;28;19995;-66
2021/07/19 02:26:42;;;;;;;;;;;;;;;15.84;100.00;96156.09;1051273;28;19920;-65
2021/07/19 02:27:12;;;;;;;;;;;;;;;15.84;100.00;96153.41;1045031;28;19917;-65
2021/07/19 02:27:43;;;;;;;;;;;;;;;15.84;100.00;96158.78;1053322;28;20253;-65
2021/07/19 02:28:14;;;;;;;;;;;;;;;15.84;100.00;96156.09;1049129;28;19912;-65
2021/07/19 02:28:44;;;;;;;;;;;;;;;15.84;100.00;96155.31;1045040;28;19917;-66
2021/07/19 02:29:16;;;;;;;;;;;;;;;15.85;100.00;96151.50;1044962;28;20356;-65
2021/07/19 02:29:46;;;;;;;;;;;;;;;15.85;100.00;96152.31;1041108;28;19917;-66
2021/07/19 02:30:17;;;;;;;;;;;;;;;15.83;100.00;96151.00;1045316;28;20329;-65
2021/07/19 02:30:47;;;;;;;;;;;;;;;15.83;100.00;96142.94;1049093;28;20466;-65
2021/07/19 02:31:18;;;;;;;;;;;;;;;15.82;100.00;96144.03;1040827;28;19971;-65
2021/07/19 02:31:49;;;;;;;;;;;;;;;15.81;100.00;96145.09;1040921;28;19913;-65
2021/07/19 02:32:19;;;;;;;;;;;;;;;15.83;100.00;96142.94;1036788;28;19948;-65
2021/07/19 02:32:50;;;;;;;;;;;;;;;15.82;100.00;96152.13;1041088;28;20047;-65
2021/07/19 02:33:20;;;;;;;;;;;;;;;15.82;100.00;96144.84;1049213;28;20387;-65
2021/07/19 02:33:51;;;;;;;;;;;;;;;15.81;100.00;96150.50;1049245;28;19948;-65
2021/07/19 02:34:24;;;;;;;;;;;;;;;15.80;100.00;96143.53;1047899;28;22297;-65
2021/07/19 02:34:54;;;;;;;;;;;;;;;15.79;100.00;96150.00;1045068;28;19999;-65
2021/07/19 02:35:24;;;;;;;;;;;;;;;15.77;100.00;96150.31;1049070;28;19923;-65
2021/07/19 02:35:55;;;;;;;;;;;;;;;15.76;100.00;96146.00;1049461;28;19938;-65
2021/07/19 02:36:25;;;;;;;;;;;;;;;15.77;100.00;96147.63;1053133;28;19916;-66
2021/07/19 02:36:55;;;;;;;;;;;;;;;15.77;100.00;96152.22;1056016;28;20010;-66
2021/07/19 02:37:26;;;;;;;;;;;;;;;15.75;100.00;96151.69;1057403;28;19961;-65
2021/07/19 02:37:57;;;;;;;;;;;;;;;15.75;100.00;96149.00;1053319;28;19994;-66
2021/07/19 02:38:27;;;;;;;;;;;;;;;15.74;100.00;96155.50;1053061;28;19916;-65
2021/07/19 02:38:58;;;;;;;;;;;;;;;15.70;100.00;96151.81;1048974;28;19911;-65
2021/07/19 02:39:28;;;;;;;;;;;;;;;15.69;100.00;96155.59;1049293;28;19916;-66
2021/07/19 02:39:58;;;;;;;;;;;;;;;15.68;100.00;96151.31;1057591;28;20261;-65